Montague, Canada
Current Conditions -  °F | °C
As of 2:00 PM on Saturday 20 Dec 2014 (Local Time) from CYYG Reporting Station
Overcast Overcast  
Wind Chill: 25°   Ceiling: 2900
Heat Index: 32°   Visibility: 15mi
Dew Point: 25°   Wind: 8mph
Humidity: 75%   Direction: 20°NNE
Pressure: 30.25"   Gusts: NA
Location:  46.17°N, 62.65°W
Report Text: CYYG 201800Z 02007KT 15SM FEW020 OVC029 M00/M04 A3025 RMK SC1SC7 SLP247
Loading
Personal Weather Stations






























Interactive Weather Map New forecast layout! Learn more

10-Day Weather Forecast

Advertisements
Track Severe Weather on mobile